sensor_id;sensor_type;location;lat;lon;timestamp;P1;durP1;ratioP1;P2;durP2;ratioP2
74689;SDS011;63221;51.860;-2.188;2023-05-10T00:00:55;9.20;;;3.00;;
74689;SDS011;63221;51.860;-2.188;2023-05-10T00:03:21;16.20;;;2.38;;
74689;SDS011;63221;51.860;-2.188;2023-05-10T00:05:46;6.03;;;2.10;;
74689;SDS011;63221;51.860;-2.188;2023-05-10T00:08:12;6.60;;;2.70;;
74689;SDS011;63221;51.860;-2.188;2023-05-10T00:10:37;8.33;;;2.50;;
74689;SDS011;63221;51.860;-2.188;2023-05-10T00:13:03;4.40;;;2.87;;
74689;SDS011;63221;51.860;-2.188;2023-05-10T00:15:28;5.60;;;2.50;;
74689;SDS011;63221;51.860;-2.188;2023-05-10T00:17:55;6.25;;;2.30;;
74689;SDS011;63221;51.860;-2.188;2023-05-10T00:20:21;5.75;;;2.13;;
74689;SDS011;63221;51.860;-2.188;2023-05-10T00:22:46;5.57;;;2.63;;
74689;SDS011;63221;51.860;-2.188;2023-05-10T00:25:12;9.20;;;3.07;;
74689;SDS011;63221;51.860;-2.188;2023-05-10T00:27:37;8.80;;;2.70;;
74689;SDS011;63221;51.860;-2.188;2023-05-10T00:30:03;9.23;;;2.83;;
74689;SDS011;63221;51.860;-2.188;2023-05-10T00:32:29;4.70;;;2.57;;
74689;SDS011;63221;51.860;-2.188;2023-05-10T00:34:54;6.00;;;1.75;;
74689;SDS011;63221;51.860;-2.188;2023-05-10T00:37:20;5.20;;;3.23;;
74689;SDS011;63221;51.860;-2.188;2023-05-10T00:39:45;8.43;;;1.97;;
74689;SDS011;63221;51.860;-2.188;2023-05-10T00:42:10;6.93;;;2.20;;
74689;SDS011;63221;51.860;-2.188;2023-05-10T00:44:36;8.75;;;2.10;;
74689;SDS011;63221;51.860;-2.188;2023-05-10T00:47:01;5.13;;;1.73;;
74689;SDS011;63221;51.860;-2.188;2023-05-10T00:49:27;4.37;;;1.97;;
74689;SDS011;63221;51.860;-2.188;2023-05-10T00:51:53;6.45;;;2.17;;
74689;SDS011;63221;51.860;-2.188;2023-05-10T00:54:19;6.73;;;2.63;;
74689;SDS011;63221;51.860;-2.188;2023-05-10T00:56:44;5.85;;;2.33;;
74689;SDS011;63221;51.860;-2.188;2023-05-10T00:59:14;7.70;;;2.63;;
74689;SDS011;63221;51.860;-2.188;2023-05-10T01:01:41;6.40;;;2.15;;
74689;SDS011;63221;51.860;-2.188;2023-05-10T01:04:08;4.10;;;1.65;;
74689;SDS011;63221;51.860;-2.188;2023-05-10T01:06:34;5.68;;;2.35;;
74689;SDS011;63221;51.860;-2.188;2023-05-10T01:09:00;4.00;;;2.37;;
74689;SDS011;63221;51.860;-2.188;2023-05-10T01:11:25;5.77;;;1.93;;
74689;SDS011;63221;51.860;-2.188;2023-05-10T01:13:52;5.72;;;2.38;;
74689;SDS011;63221;51.860;-2.188;2023-05-10T01:16:21;4.23;;;2.63;;
74689;SDS011;63221;51.860;-2.188;2023-05-10T01:18:47;6.32;;;1.50;;
74689;SDS011;63221;51.860;-2.188;2023-05-10T01:26:52;4.20;;;1.80;;
74689;SDS011;63221;51.860;-2.188;2023-05-10T01:29:45;3.08;;;1.25;;
74689;SDS011;63221;51.860;-2.188;2023-05-10T01:40:17;9.67;;;2.23;;
74689;SDS011;63221;51.860;-2.188;2023-05-10T01:42:52;3.58;;;1.90;;
74689;SDS011;63221;51.860;-2.188;2023-05-10T01:45:37;7.45;;;2.08;;
74689;SDS011;63221;51.860;-2.188;2023-05-10T01:48:08;5.35;;;2.15;;
74689;SDS011;63221;51.860;-2.188;2023-05-10T01:50:35;3.78;;;2.00;;
74689;SDS011;63221;51.860;-2.188;2023-05-10T01:53:02;10.47;;;2.27;;
74689;SDS011;63221;51.860;-2.188;2023-05-10T01:55:29;6.43;;;1.63;;
74689;SDS011;63221;51.860;-2.188;2023-05-10T01:58:18;6.47;;;1.85;;
74689;SDS011;63221;51.860;-2.188;2023-05-10T02:00:44;8.20;;;2.15;;
74689;SDS011;63221;51.860;-2.188;2023-05-10T02:03:10;6.57;;;1.95;;
74689;SDS011;63221;51.860;-2.188;2023-05-10T02:05:37;7.67;;;2.43;;
74689;SDS011;63221;51.860;-2.188;2023-05-10T02:08:05;4.13;;;1.55;;
74689;SDS011;63221;51.860;-2.188;2023-05-10T02:10:34;5.88;;;2.17;;
74689;SDS011;63221;51.860;-2.188;2023-05-10T02:13:00;3.88;;;1.73;;
74689;SDS011;63221;51.860;-2.188;2023-05-10T02:15:27;4.03;;;1.90;;
74689;SDS011;63221;51.860;-2.188;2023-05-10T02:17:57;7.50;;;1.87;;
74689;SDS011;63221;51.860;-2.188;2023-05-10T02:20:24;5.75;;;2.30;;
74689;SDS011;63221;51.860;-2.188;2023-05-10T02:22:50;4.63;;;1.70;;
74689;SDS011;63221;51.860;-2.188;2023-05-10T02:25:17;7.78;;;2.35;;
74689;SDS011;63221;51.860;-2.188;2023-05-10T02:27:44;5.45;;;1.75;;
74689;SDS011;63221;51.860;-2.188;2023-05-10T02:30:09;8.00;;;1.80;;
74689;SDS011;63221;51.860;-2.188;2023-05-10T02:32:35;7.35;;;1.48;;
74689;SDS011;63221;51.860;-2.188;2023-05-10T02:35:02;8.10;;;2.10;;
74689;SDS011;63221;51.860;-2.188;2023-05-10T02:37:28;4.83;;;1.97;;
74689;SDS011;63221;51.860;-2.188;2023-05-10T02:39:54;4.38;;;2.20;;
74689;SDS011;63221;51.860;-2.188;2023-05-10T02:42:23;8.80;;;2.65;;
74689;SDS011;63221;51.860;-2.188;2023-05-10T02:44:51;6.60;;;3.00;;
74689;SDS011;63221;51.860;-2.188;2023-05-10T02:47:18;5.75;;;2.13;;
74689;SDS011;63221;51.860;-2.188;2023-05-10T02:49:44;7.30;;;2.60;;
74689;SDS011;63221;51.860;-2.188;2023-05-10T02:52:09;5.17;;;1.87;;
74689;SDS011;63221;51.860;-2.188;2023-05-10T02:54:43;7.60;;;2.58;;
74689;SDS011;63221;51.860;-2.188;2023-05-10T02:57:11;6.97;;;3.00;;
74689;SDS011;63221;51.860;-2.188;2023-05-10T02:59:44;5.63;;;2.60;;
74689;SDS011;63221;51.860;-2.188;2023-05-10T03:02:11;8.05;;;1.73;;
74689;SDS011;63221;51.860;-2.188;2023-05-10T03:04:37;7.57;;;2.53;;
74689;SDS011;63221;51.860;-2.188;2023-05-10T03:07:02;4.60;;;2.53;;
74689;SDS011;63221;51.860;-2.188;2023-05-10T03:09:28;6.20;;;2.57;;
74689;SDS011;63221;51.860;-2.188;2023-05-10T03:14:39;6.18;;;2.70;;
74689;SDS011;63221;51.860;-2.188;2023-05-10T03:17:15;6.27;;;2.43;;
74689;SDS011;63221;51.860;-2.188;2023-05-10T03:20:06;6.40;;;1.90;;
74689;SDS011;63221;51.860;-2.188;2023-05-10T03:22:37;5.38;;;2.30;;
74689;SDS011;63221;51.860;-2.188;2023-05-10T03:25:05;5.38;;;2.38;;
74689;SDS011;63221;51.860;-2.188;2023-05-10T03:27:32;6.00;;;2.33;;
74689;SDS011;63221;51.860;-2.188;2023-05-10T03:29:57;12.73;;;3.13;;
74689;SDS011;63221;51.860;-2.188;2023-05-10T03:32:23;7.93;;;2.30;;
74689;SDS011;63221;51.860;-2.188;2023-05-10T03:34:48;8.53;;;2.83;;
74689;SDS011;63221;51.860;-2.188;2023-05-10T03:37:14;9.53;;;3.23;;
74689;SDS011;63221;51.860;-2.188;2023-05-10T03:39:39;8.43;;;3.65;;
74689;SDS011;63221;51.860;-2.188;2023-05-10T03:42:05;7.37;;;2.57;;
74689;SDS011;63221;51.860;-2.188;2023-05-10T03:44:31;14.10;;;3.00;;
74689;SDS011;63221;51.860;-2.188;2023-05-10T03:46:58;9.82;;;3.15;;
74689;SDS011;63221;51.860;-2.188;2023-05-10T03:49:23;12.40;;;3.38;;
74689;SDS011;63221;51.860;-2.188;2023-05-10T03:51:49;13.03;;;3.60;;
74689;SDS011;63221;51.860;-2.188;2023-05-10T03:54:14;11.40;;;3.13;;
74689;SDS011;63221;51.860;-2.188;2023-05-10T03:56:40;18.23;;;3.67;;
74689;SDS011;63221;51.860;-2.188;2023-05-10T03:59:05;12.50;;;4.20;;
74689;SDS011;63221;51.860;-2.188;2023-05-10T04:01:33;11.93;;;4.15;;
74689;SDS011;63221;51.860;-2.188;2023-05-10T04:03:58;18.23;;;5.75;;
74689;SDS011;63221;51.860;-2.188;2023-05-10T04:06:24;9.70;;;3.70;;
74689;SDS011;63221;51.860;-2.188;2023-05-10T04:08:49;11.67;;;4.60;;
74689;SDS011;63221;51.860;-2.188;2023-05-10T04:11:15;13.68;;;4.30;;
74689;SDS011;63221;51.860;-2.188;2023-05-10T04:13:40;11.83;;;4.17;;
74689;SDS011;63221;51.860;-2.188;2023-05-10T04:16:06;13.63;;;4.07;;
74689;SDS011;63221;51.860;-2.188;2023-05-10T04:18:31;13.73;;;4.75;;
74689;SDS011;63221;51.860;-2.188;2023-05-10T04:20:57;11.73;;;3.57;;
74689;SDS011;63221;51.860;-2.188;2023-05-10T04:23:22;15.03;;;3.83;;
74689;SDS011;63221;51.860;-2.188;2023-05-10T04:25:48;18.05;;;4.38;;
74689;SDS011;63221;51.860;-2.188;2023-05-10T04:28:13;12.37;;;4.90;;
74689;SDS011;63221;51.860;-2.188;2023-05-10T04:30:39;11.13;;;4.10;;
74689;SDS011;63221;51.860;-2.188;2023-05-10T04:33:05;10.70;;;4.32;;
74689;SDS011;63221;51.860;-2.188;2023-05-10T04:35:31;15.85;;;5.05;;
74689;SDS011;63221;51.860;-2.188;2023-05-10T04:37:56;13.20;;;5.63;;
74689;SDS011;63221;51.860;-2.188;2023-05-10T04:40:21;17.23;;;4.83;;
74689;SDS011;63221;51.860;-2.188;2023-05-10T04:42:47;17.60;;;6.13;;
74689;SDS011;63221;51.860;-2.188;2023-05-10T04:45:12;19.73;;;5.40;;
74689;SDS011;63221;51.860;-2.188;2023-05-10T04:47:39;15.13;;;5.20;;
74689;SDS011;63221;51.860;-2.188;2023-05-10T04:50:05;13.23;;;5.50;;
74689;SDS011;63221;51.860;-2.188;2023-05-10T04:52:31;15.07;;;5.40;;
74689;SDS011;63221;51.860;-2.188;2023-05-10T04:54:56;16.08;;;5.25;;
74689;SDS011;63221;51.860;-2.188;2023-05-10T04:57:22;13.47;;;5.53;;
74689;SDS011;63221;51.860;-2.188;2023-05-10T04:59:47;17.23;;;5.67;;
74689;SDS011;63221;51.860;-2.188;2023-05-10T05:02:13;16.13;;;5.93;;
74689;SDS011;63221;51.860;-2.188;2023-05-10T05:04:38;12.67;;;5.50;;
74689;SDS011;63221;51.860;-2.188;2023-05-10T05:07:04;17.53;;;6.20;;
74689;SDS011;63221;51.860;-2.188;2023-05-10T05:09:29;15.93;;;6.17;;
74689;SDS011;63221;51.860;-2.188;2023-05-10T05:11:56;16.85;;;5.50;;
74689;SDS011;63221;51.860;-2.188;2023-05-10T05:14:22;20.08;;;6.10;;
74689;SDS011;63221;51.860;-2.188;2023-05-10T05:16:50;19.17;;;5.77;;
74689;SDS011;63221;51.860;-2.188;2023-05-10T05:19:15;13.25;;;6.70;;
74689;SDS011;63221;51.860;-2.188;2023-05-10T05:21:41;15.30;;;5.70;;
74689;SDS011;63221;51.860;-2.188;2023-05-10T05:24:06;14.05;;;6.65;;
74689;SDS011;63221;51.860;-2.188;2023-05-10T05:26:32;14.27;;;6.10;;
74689;SDS011;63221;51.860;-2.188;2023-05-10T05:28:58;14.52;;;5.82;;
74689;SDS011;63221;51.860;-2.188;2023-05-10T05:31:23;17.27;;;7.03;;
74689;SDS011;63221;51.860;-2.188;2023-05-10T05:33:49;16.27;;;6.07;;
74689;SDS011;63221;51.860;-2.188;2023-05-10T05:36:14;14.97;;;6.57;;
74689;SDS011;63221;51.860;-2.188;2023-05-10T05:38:39;17.13;;;6.03;;
74689;SDS011;63221;51.860;-2.188;2023-05-10T05:41:05;17.43;;;6.03;;
74689;SDS011;63221;51.860;-2.188;2023-05-10T05:43:30;16.73;;;5.97;;
74689;SDS011;63221;51.860;-2.188;2023-05-10T05:45:56;15.90;;;7.27;;
74689;SDS011;63221;51.860;-2.188;2023-05-10T05:48:22;13.98;;;5.90;;
74689;SDS011;63221;51.860;-2.188;2023-05-10T05:50:48;10.43;;;5.28;;
74689;SDS011;63221;51.860;-2.188;2023-05-10T05:53:14;15.20;;;6.37;;
74689;SDS011;63221;51.860;-2.188;2023-05-10T05:55:39;16.20;;;4.87;;
74689;SDS011;63221;51.860;-2.188;2023-05-10T05:58:05;9.30;;;4.22;;
74689;SDS011;63221;51.860;-2.188;2023-05-10T06:00:30;13.90;;;4.40;;
74689;SDS011;63221;51.860;-2.188;2023-05-10T06:02:56;14.37;;;4.40;;
74689;SDS011;63221;51.860;-2.188;2023-05-10T06:05:22;10.13;;;4.40;;
74689;SDS011;63221;51.860;-2.188;2023-05-10T06:07:47;13.33;;;4.77;;
74689;SDS011;63221;51.860;-2.188;2023-05-10T06:10:12;15.32;;;4.40;;
74689;SDS011;63221;51.860;-2.188;2023-05-10T06:12:38;9.60;;;4.47;;
74689;SDS011;63221;51.860;-2.188;2023-05-10T06:15:04;10.97;;;4.30;;
74689;SDS011;63221;51.860;-2.188;2023-05-10T06:17:30;11.48;;;4.32;;
74689;SDS011;63221;51.860;-2.188;2023-05-10T06:19:55;8.33;;;4.43;;
74689;SDS011;63221;51.860;-2.188;2023-05-10T06:22:21;6.75;;;3.35;;
74689;SDS011;63221;51.860;-2.188;2023-05-10T06:24:49;12.93;;;4.23;;
74689;SDS011;63221;51.860;-2.188;2023-05-10T06:27:15;7.20;;;3.08;;
74689;SDS011;63221;51.860;-2.188;2023-05-10T06:29:40;9.83;;;3.70;;
74689;SDS011;63221;51.860;-2.188;2023-05-10T06:32:06;12.07;;;3.63;;
74689;SDS011;63221;51.860;-2.188;2023-05-10T06:34:31;11.43;;;3.60;;
74689;SDS011;63221;51.860;-2.188;2023-05-10T06:36:57;7.27;;;3.10;;
74689;SDS011;63221;51.860;-2.188;2023-05-10T06:39:22;7.63;;;3.00;;
74689;SDS011;63221;51.860;-2.188;2023-05-10T06:41:48;6.33;;;3.00;;
74689;SDS011;63221;51.860;-2.188;2023-05-10T06:44:13;6.43;;;3.50;;
74689;SDS011;63221;51.860;-2.188;2023-05-10T06:46:39;10.50;;;3.83;;
74689;SDS011;63221;51.860;-2.188;2023-05-10T06:49:04;8.70;;;2.93;;
74689;SDS011;63221;51.860;-2.188;2023-05-10T06:51:29;8.43;;;2.97;;
74689;SDS011;63221;51.860;-2.188;2023-05-10T06:53:55;8.18;;;2.45;;
74689;SDS011;63221;51.860;-2.188;2023-05-10T06:56:21;7.70;;;3.00;;
74689;SDS011;63221;51.860;-2.188;2023-05-10T06:58:47;7.90;;;2.97;;
74689;SDS011;63221;51.860;-2.188;2023-05-10T07:01:12;8.10;;;2.40;;
74689;SDS011;63221;51.860;-2.188;2023-05-10T07:03:38;7.47;;;3.03;;
74689;SDS011;63221;51.860;-2.188;2023-05-10T07:06:03;7.77;;;3.33;;
74689;SDS011;63221;51.860;-2.188;2023-05-10T07:08:30;4.60;;;2.45;;
74689;SDS011;63221;51.860;-2.188;2023-05-10T07:11:03;10.93;;;4.10;;
74689;SDS011;63221;51.860;-2.188;2023-05-10T07:13:32;6.60;;;3.67;;
74689;SDS011;63221;51.860;-2.188;2023-05-10T07:15:58;9.23;;;3.28;;
74689;SDS011;63221;51.860;-2.188;2023-05-10T07:18:24;7.82;;;2.63;;
74689;SDS011;63221;51.860;-2.188;2023-05-10T07:20:50;9.23;;;2.83;;
74689;SDS011;63221;51.860;-2.188;2023-05-10T07:23:16;5.70;;;3.20;;
74689;SDS011;63221;51.860;-2.188;2023-05-10T07:25:44;7.03;;;2.78;;
74689;SDS011;63221;51.860;-2.188;2023-05-10T07:28:14;6.60;;;2.13;;
74689;SDS011;63221;51.860;-2.188;2023-05-10T07:30:39;5.35;;;2.50;;
74689;SDS011;63221;51.860;-2.188;2023-05-10T07:33:05;5.03;;;2.17;;
74689;SDS011;63221;51.860;-2.188;2023-05-10T07:35:30;4.97;;;2.07;;
74689;SDS011;63221;51.860;-2.188;2023-05-10T07:37:56;5.87;;;2.40;;
74689;SDS011;63221;51.860;-2.188;2023-05-10T07:40:21;7.53;;;2.53;;
74689;SDS011;63221;51.860;-2.188;2023-05-10T07:42:47;6.27;;;2.77;;
74689;SDS011;63221;51.860;-2.188;2023-05-10T07:45:12;9.20;;;2.67;;
74689;SDS011;63221;51.860;-2.188;2023-05-10T07:47:37;7.53;;;1.90;;
74689;SDS011;63221;51.860;-2.188;2023-05-10T07:50:03;8.65;;;3.28;;
74689;SDS011;63221;51.860;-2.188;2023-05-10T07:52:29;8.47;;;2.70;;
74689;SDS011;63221;51.860;-2.188;2023-05-10T07:54:54;8.65;;;2.42;;
74689;SDS011;63221;51.860;-2.188;2023-05-10T07:57:21;5.07;;;2.38;;
74689;SDS011;63221;51.860;-2.188;2023-05-10T07:59:47;6.57;;;1.67;;
74689;SDS011;63221;51.860;-2.188;2023-05-10T08:02:12;4.50;;;2.03;;
74689;SDS011;63221;51.860;-2.188;2023-05-10T08:04:38;8.07;;;2.60;;
74689;SDS011;63221;51.860;-2.188;2023-05-10T08:07:03;6.45;;;1.45;;
74689;SDS011;63221;51.860;-2.188;2023-05-10T08:09:29;4.63;;;1.60;;
74689;SDS011;63221;51.860;-2.188;2023-05-10T08:11:54;6.50;;;2.17;;
74689;SDS011;63221;51.860;-2.188;2023-05-10T08:14:20;7.05;;;1.75;;
74689;SDS011;63221;51.860;-2.188;2023-05-10T08:16:45;5.00;;;1.90;;
74689;SDS011;63221;51.860;-2.188;2023-05-10T08:19:10;6.80;;;1.97;;
74689;SDS011;63221;51.860;-2.188;2023-05-10T08:21:36;5.80;;;1.97;;
74689;SDS011;63221;51.860;-2.188;2023-05-10T08:24:01;6.10;;;2.67;;
74689;SDS011;63221;51.860;-2.188;2023-05-10T08:26:27;5.85;;;1.50;;
74689;SDS011;63221;51.860;-2.188;2023-05-10T08:28:52;3.90;;;1.70;;
74689;SDS011;63221;51.860;-2.188;2023-05-10T08:31:18;6.20;;;2.10;;
74689;SDS011;63221;51.860;-2.188;2023-05-10T08:33:43;10.75;;;2.83;;
74689;SDS011;63221;51.860;-2.188;2023-05-10T08:36:09;5.30;;;1.83;;
74689;SDS011;63221;51.860;-2.188;2023-05-10T08:38:35;6.38;;;1.42;;
74689;SDS011;63221;51.860;-2.188;2023-05-10T08:41:00;8.83;;;1.63;;
74689;SDS011;63221;51.860;-2.188;2023-05-10T08:43:27;10.57;;;2.03;;
74689;SDS011;63221;51.860;-2.188;2023-05-10T08:45:54;8.85;;;1.88;;
74689;SDS011;63221;51.860;-2.188;2023-05-10T08:48:21;8.10;;;3.00;;
74689;SDS011;63221;51.860;-2.188;2023-05-10T08:50:48;4.72;;;1.83;;
74689;SDS011;63221;51.860;-2.188;2023-05-10T08:53:14;4.97;;;1.90;;
74689;SDS011;63221;51.860;-2.188;2023-05-10T08:55:41;5.43;;;1.25;;
74689;SDS011;63221;51.860;-2.188;2023-05-10T08:58:08;4.10;;;1.13;;
74689;SDS011;63221;51.860;-2.188;2023-05-10T09:00:34;5.27;;;1.10;;
74689;SDS011;63221;51.860;-2.188;2023-05-10T09:03:00;11.55;;;2.63;;
74689;SDS011;63221;51.860;-2.188;2023-05-10T09:05:28;2.17;;;1.60;;
74689;SDS011;63221;51.860;-2.188;2023-05-10T09:07:54;4.73;;;1.50;;
74689;SDS011;63221;51.860;-2.188;2023-05-10T09:10:20;4.73;;;1.80;;
74689;SDS011;63221;51.860;-2.188;2023-05-10T09:12:46;5.43;;;1.33;;
74689;SDS011;63221;51.860;-2.188;2023-05-10T09:15:14;5.35;;;1.50;;
74689;SDS011;63221;51.860;-2.188;2023-05-10T09:17:40;4.32;;;1.50;;
74689;SDS011;63221;51.860;-2.188;2023-05-10T09:20:07;5.15;;;1.45;;
74689;SDS011;63221;51.860;-2.188;2023-05-10T09:22:33;4.90;;;2.27;;
74689;SDS011;63221;51.860;-2.188;2023-05-10T09:25:09;3.83;;;1.50;;
74689;SDS011;63221;51.860;-2.188;2023-05-10T09:27:36;6.15;;;1.27;;
74689;SDS011;63221;51.860;-2.188;2023-05-10T09:30:03;5.53;;;2.20;;
74689;SDS011;63221;51.860;-2.188;2023-05-10T09:35:26;3.92;;;1.60;;
74689;SDS011;63221;51.860;-2.188;2023-05-10T09:37:54;3.00;;;1.88;;
74689;SDS011;63221;51.860;-2.188;2023-05-10T09:42:51;4.37;;;1.73;;
74689;SDS011;63221;51.860;-2.188;2023-05-10T09:45:24;3.55;;;1.02;;
74689;SDS011;63221;51.860;-2.188;2023-05-10T09:47:51;4.90;;;1.60;;
74689;SDS011;63221;51.860;-2.188;2023-05-10T09:50:17;3.93;;;1.40;;
74689;SDS011;63221;51.860;-2.188;2023-05-10T09:52:46;2.70;;;1.10;;
74689;SDS011;63221;51.860;-2.188;2023-05-10T09:55:12;5.38;;;1.50;;
74689;SDS011;63221;51.860;-2.188;2023-05-10T09:57:37;7.33;;;1.53;;
74689;SDS011;63221;51.860;-2.188;2023-05-10T10:00:04;5.68;;;1.38;;
74689;SDS011;63221;51.860;-2.188;2023-05-10T10:02:30;3.80;;;1.52;;
74689;SDS011;63221;51.860;-2.188;2023-05-10T10:04:56;2.40;;;0.83;;
74689;SDS011;63221;51.860;-2.188;2023-05-10T10:07:24;2.58;;;1.00;;
74689;SDS011;63221;51.860;-2.188;2023-05-10T10:09:50;2.33;;;1.13;;
74689;SDS011;63221;51.860;-2.188;2023-05-10T10:12:16;3.95;;;1.67;;
74689;SDS011;63221;51.860;-2.188;2023-05-10T10:14:41;2.00;;;0.70;;
74689;SDS011;63221;51.860;-2.188;2023-05-10T10:17:07;3.20;;;0.70;;
74689;SDS011;63221;51.860;-2.188;2023-05-10T10:19:33;2.47;;;0.80;;
74689;SDS011;63221;51.860;-2.188;2023-05-10T10:22:00;5.38;;;0.88;;
74689;SDS011;63221;51.860;-2.188;2023-05-10T10:24:25;3.43;;;1.23;;
74689;SDS011;63221;51.860;-2.188;2023-05-10T10:26:51;3.80;;;1.60;;
74689;SDS011;63221;51.860;-2.188;2023-05-10T10:29:26;2.35;;;0.57;;
74689;SDS011;63221;51.860;-2.188;2023-05-10T10:32:22;2.78;;;0.85;;
74689;SDS011;63221;51.860;-2.188;2023-05-10T10:34:50;2.50;;;0.67;;
74689;SDS011;63221;51.860;-2.188;2023-05-10T10:37:17;1.95;;;1.00;;
74689;SDS011;63221;51.860;-2.188;2023-05-10T10:39:42;3.75;;;1.20;;
74689;SDS011;63221;51.860;-2.188;2023-05-10T10:42:08;3.27;;;0.80;;
74689;SDS011;63221;51.860;-2.188;2023-05-10T10:44:36;6.47;;;1.00;;
74689;SDS011;63221;51.860;-2.188;2023-05-10T10:49:33;3.00;;;1.15;;
74689;SDS011;63221;51.860;-2.188;2023-05-10T10:52:15;6.20;;;1.50;;
74689;SDS011;63221;51.860;-2.188;2023-05-10T10:54:51;5.07;;;1.70;;
74689;SDS011;63221;51.860;-2.188;2023-05-10T11:07:59;4.28;;;1.73;;
74689;SDS011;63221;51.860;-2.188;2023-05-10T11:10:25;3.70;;;2.65;;
74689;SDS011;63221;51.860;-2.188;2023-05-10T11:12:55;5.87;;;1.70;;
74689;SDS011;63221;51.860;-2.188;2023-05-10T11:17:56;5.57;;;2.50;;
74689;SDS011;63221;51.860;-2.188;2023-05-10T11:20:21;6.90;;;2.27;;
74689;SDS011;63221;51.860;-2.188;2023-05-10T11:22:50;6.93;;;2.65;;
74689;SDS011;63221;51.860;-2.188;2023-05-10T11:25:16;10.80;;;2.38;;
74689;SDS011;63221;51.860;-2.188;2023-05-10T11:27:42;5.83;;;1.97;;
74689;SDS011;63221;51.860;-2.188;2023-05-10T11:30:09;8.13;;;2.92;;
74689;SDS011;63221;51.860;-2.188;2023-05-10T11:32:39;5.38;;;1.77;;
74689;SDS011;63221;51.860;-2.188;2023-05-10T11:35:08;7.37;;;2.03;;
74689;SDS011;63221;51.860;-2.188;2023-05-10T11:37:34;6.75;;;1.40;;
74689;SDS011;63221;51.860;-2.188;2023-05-10T11:40:00;7.38;;;1.75;;
74689;SDS011;63221;51.860;-2.188;2023-05-10T11:42:27;7.07;;;2.70;;
74689;SDS011;63221;51.860;-2.188;2023-05-10T11:44:53;8.98;;;2.20;;
74689;SDS011;63221;51.860;-2.188;2023-05-10T11:47:18;5.90;;;2.30;;
74689;SDS011;63221;51.860;-2.188;2023-05-10T11:49:44;7.18;;;2.17;;
74689;SDS011;63221;51.860;-2.188;2023-05-10T11:52:10;10.30;;;2.20;;
74689;SDS011;63221;51.860;-2.188;2023-05-10T11:54:44;7.35;;;2.38;;
74689;SDS011;63221;51.860;-2.188;2023-05-10T11:57:18;6.50;;;2.10;;
74689;SDS011;63221;51.860;-2.188;2023-05-10T11:59:44;4.95;;;1.95;;
74689;SDS011;63221;51.860;-2.188;2023-05-10T12:02:10;5.50;;;2.00;;
74689;SDS011;63221;51.860;-2.188;2023-05-10T12:04:36;6.18;;;2.40;;
74689;SDS011;63221;51.860;-2.188;2023-05-10T12:07:02;6.45;;;2.53;;
74689;SDS011;63221;51.860;-2.188;2023-05-10T12:09:27;8.60;;;2.80;;
74689;SDS011;63221;51.860;-2.188;2023-05-10T12:11:55;6.47;;;2.27;;
74689;SDS011;63221;51.860;-2.188;2023-05-10T12:14:22;8.05;;;2.95;;
74689;SDS011;63221;51.860;-2.188;2023-05-10T12:16:47;4.37;;;2.50;;
74689;SDS011;63221;51.860;-2.188;2023-05-10T12:19:13;3.92;;;1.63;;
74689;SDS011;63221;51.860;-2.188;2023-05-10T12:21:43;3.93;;;2.50;;
74689;SDS011;63221;51.860;-2.188;2023-05-10T12:24:09;5.70;;;1.83;;
74689;SDS011;63221;51.860;-2.188;2023-05-10T12:26:35;7.70;;;1.43;;
74689;SDS011;63221;51.860;-2.188;2023-05-10T12:31:50;2.53;;;0.93;;
74689;SDS011;63221;51.860;-2.188;2023-05-10T12:34:53;6.57;;;1.08;;
74689;SDS011;63221;51.860;-2.188;2023-05-10T12:37:11;8.47;;;1.60;;
74689;SDS011;63221;51.860;-2.188;2023-05-10T12:39:38;4.43;;;1.88;;
74689;SDS011;63221;51.860;-2.188;2023-05-10T12:42:08;7.65;;;1.75;;
74689;SDS011;63221;51.860;-2.188;2023-05-10T12:44:33;7.30;;;2.10;;
74689;SDS011;63221;51.860;-2.188;2023-05-10T12:46:59;5.17;;;1.97;;
74689;SDS011;63221;51.860;-2.188;2023-05-10T12:49:24;2.77;;;2.23;;
74689;SDS011;63221;51.860;-2.188;2023-05-10T12:51:49;2.77;;;1.30;;
74689;SDS011;63221;51.860;-2.188;2023-05-10T12:54:15;6.50;;;1.97;;
74689;SDS011;63221;51.860;-2.188;2023-05-10T12:56:40;2.38;;;0.85;;
74689;SDS011;63221;51.860;-2.188;2023-05-10T12:59:07;6.10;;;1.10;;
74689;SDS011;63221;51.860;-2.188;2023-05-10T13:01:33;3.95;;;1.40;;
74689;SDS011;63221;51.860;-2.188;2023-05-10T13:03:58;3.80;;;1.33;;
74689;SDS011;63221;51.860;-2.188;2023-05-10T13:06:25;5.07;;;1.05;;
74689;SDS011;63221;51.860;-2.188;2023-05-10T13:08:50;4.63;;;1.40;;
74689;SDS011;63221;51.860;-2.188;2023-05-10T13:11:16;7.28;;;1.95;;
74689;SDS011;63221;51.860;-2.188;2023-05-10T13:13:42;5.83;;;2.40;;
74689;SDS011;63221;51.860;-2.188;2023-05-10T13:16:07;7.00;;;1.83;;
74689;SDS011;63221;51.860;-2.188;2023-05-10T13:18:33;5.47;;;2.10;;
74689;SDS011;63221;51.860;-2.188;2023-05-10T13:20:58;7.57;;;2.23;;
74689;SDS011;63221;51.860;-2.188;2023-05-10T13:23:24;6.07;;;1.80;;
74689;SDS011;63221;51.860;-2.188;2023-05-10T13:25:49;8.20;;;2.08;;
74689;SDS011;63221;51.860;-2.188;2023-05-10T13:28:15;3.07;;;1.33;;
74689;SDS011;63221;51.860;-2.188;2023-05-10T13:30:40;8.80;;;2.00;;
74689;SDS011;63221;51.860;-2.188;2023-05-10T13:33:06;6.40;;;2.67;;
74689;SDS011;63221;51.860;-2.188;2023-05-10T13:35:31;9.43;;;2.28;;
74689;SDS011;63221;51.860;-2.188;2023-05-10T13:37:56;14.77;;;3.00;;
74689;SDS011;63221;51.860;-2.188;2023-05-10T13:40:22;9.47;;;2.60;;
74689;SDS011;63221;51.860;-2.188;2023-05-10T13:42:48;4.82;;;1.58;;
74689;SDS011;63221;51.860;-2.188;2023-05-10T13:45:13;4.60;;;1.43;;
74689;SDS011;63221;51.860;-2.188;2023-05-10T13:47:38;0.87;;;0.60;;
74689;SDS011;63221;51.860;-2.188;2023-05-10T13:50:04;1.20;;;0.83;;
74689;SDS011;63221;51.860;-2.188;2023-05-10T13:52:30;1.00;;;0.80;;
74689;SDS011;63221;51.860;-2.188;2023-05-10T13:54:55;1.00;;;0.50;;
74689;SDS011;63221;51.860;-2.188;2023-05-10T13:57:21;3.58;;;0.75;;
74689;SDS011;63221;51.860;-2.188;2023-05-10T13:59:47;3.70;;;1.23;;
74689;SDS011;63221;51.860;-2.188;2023-05-10T14:02:12;2.45;;;1.17;;
74689;SDS011;63221;51.860;-2.188;2023-05-10T14:04:38;1.53;;;0.40;;
74689;SDS011;63221;51.860;-2.188;2023-05-10T14:07:03;2.03;;;0.77;;
74689;SDS011;63221;51.860;-2.188;2023-05-10T14:09:29;1.83;;;0.45;;
74689;SDS011;63221;51.860;-2.188;2023-05-10T14:11:55;2.08;;;0.68;;
74689;SDS011;63221;51.860;-2.188;2023-05-10T14:14:20;6.63;;;2.20;;
74689;SDS011;63221;51.860;-2.188;2023-05-10T14:16:46;12.43;;;4.50;;
74689;SDS011;63221;51.860;-2.188;2023-05-10T14:19:12;4.45;;;1.40;;
74689;SDS011;63221;51.860;-2.188;2023-05-10T14:21:37;4.37;;;1.53;;
74689;SDS011;63221;51.860;-2.188;2023-05-10T14:24:03;6.47;;;2.00;;
74689;SDS011;63221;51.860;-2.188;2023-05-10T14:26:29;3.83;;;2.67;;
74689;SDS011;63221;51.860;-2.188;2023-05-10T14:28:54;3.90;;;2.33;;
74689;SDS011;63221;51.860;-2.188;2023-05-10T14:31:20;6.05;;;1.98;;
74689;SDS011;63221;51.860;-2.188;2023-05-10T14:33:48;10.80;;;3.33;;
74689;SDS011;63221;51.860;-2.188;2023-05-10T14:36:14;6.15;;;2.50;;
74689;SDS011;63221;51.860;-2.188;2023-05-10T14:38:40;4.67;;;1.97;;
74689;SDS011;63221;51.860;-2.188;2023-05-10T14:41:05;9.07;;;2.22;;
74689;SDS011;63221;51.860;-2.188;2023-05-10T14:43:31;5.33;;;1.50;;
74689;SDS011;63221;51.860;-2.188;2023-05-10T14:45:56;3.23;;;1.73;;
74689;SDS011;63221;51.860;-2.188;2023-05-10T14:48:22;6.97;;;2.03;;
74689;SDS011;63221;51.860;-2.188;2023-05-10T14:50:47;4.03;;;1.50;;
74689;SDS011;63221;51.860;-2.188;2023-05-10T14:53:14;7.05;;;2.67;;
74689;SDS011;63221;51.860;-2.188;2023-05-10T14:55:40;2.50;;;2.03;;
74689;SDS011;63221;51.860;-2.188;2023-05-10T14:58:05;4.07;;;2.43;;
74689;SDS011;63221;51.860;-2.188;2023-05-10T15:00:31;4.40;;;1.63;;
74689;SDS011;63221;51.860;-2.188;2023-05-10T15:02:56;6.07;;;2.40;;
74689;SDS011;63221;51.860;-2.188;2023-05-10T15:05:22;6.30;;;1.90;;
74689;SDS011;63221;51.860;-2.188;2023-05-10T15:07:48;3.87;;;1.80;;